Hutchinson, KS

3:07 AM CDT on October 22, 2014 (GMT -0500)
KKSHUTCH9 | Change Station
CLOSE
Current Station
Personal Weather Station
Location: Hutchinson, KS
Elevation: 1549 ft
Nearby Weather Stations

Elev 1549 ft 38.08 °N, 97.92 °W | Updated 3 seconds ago

Clear
Clear
63.1 °F
Feels Like 63.1 °F
N
4.5
Wind Variable Wind from SE
Gusts 5.4 mph

Today
High -- | Low -- °F
--% Chance of Precip.
Yesterday
High -- | Low -- °F
Precip. -- in
7:47 AM 6:44 PM
Waning Crescent, 3% visible
Pressure 29.99 in
Visibility 8.0 miles
Clouds Clear
Dew Point 60 °F
Humidity 90%
Rainfall 0.00 in
Snow Depth Not available.
UV 0 out of 12
Pollen 3.60 out of 12
Air Quality Not available.
Flu Activity No Activity
METAR KHUT 220752Z AUTO 15006KT 8SM CLR 16/14 A3004 RMK AO2 SLP154 T01560139

More Conditions Fewer Conditions

Pressure 29.99 in
Visibility 8.0 miles
Clouds Clear
Dew Point 60 °F
Humidity 90%
Rainfall 0.00 in
Snow Depth Not available.
UV 0 out of 12
Pollen 3.60 out of 12
Air Quality Not available.
Flu Activity No Activity
METAR KHUT 220752Z AUTO 15006KT 8SM CLR 16/14 A3004 RMK AO2 SLP154 T01560139

More Conditions Fewer Conditions

10-Day Weather Forecast

Almanac

Astronomy

Oct. 22, 2014 Rise Set
Actual Time 7:47 AM CDT 6:44 PM CDT
Civil Twilight 7:20 AM CDT 7:11 PM CDT
Nautical Twilight 6:49 AM CDT 7:41 PM CDT
Astronomical Twilight 6:19 AM CDT 8:12 PM CDT
Moon 6:31 AM CDT 6:11 PM CDT
Length of Visible Light 11h 50m
Length of Day
10h 57m
Tomorrow will be 2m 17s shorter.
Waning Crescent, 3% of the Moon is Illuminated
Today
Waning Crescent
Oct 23
New
Oct 30
First Quarter
Nov 6
Full
Nov 14
Last Quarter

Today's Extremes

State Highs State Lows

Community

WunderPhotos

Upload Photos

1,763,889 photos uploaded!

Nearby

Snow Depth

Station Depth Elevation
No new snow has been reported.

Earthquake Activity

City Distance Mag. Time & Date
Mooreland, Oklahoma 123 miles 2.6 11:34 AM CDT
2014-10-21
Mooreland, Oklahoma 123 miles 2.7 11:18 AM CDT
2014-10-21
Cherokee, Oklahoma 91 miles 2.5 8:27 AM CDT
2014-10-21
Anthony, Kansas 69 miles 3.0 6:55 AM CDT
2014-10-21
Minimum magnitude displayed is 2.5.

Coastal Water Temperatures

Place Temperature
No Stations Reporting

Nearby Weather Stations